createdAt,value
2022-08-28T00:01:04.875Z,19.47
2022-08-28T00:03:31.690Z,19.63
2022-08-28T00:05:59.180Z,19.28
2022-08-28T00:08:26.605Z,19.61
2022-08-28T00:10:53.757Z,19.42
2022-08-28T00:13:22.586Z,19.82
2022-08-28T00:15:52.239Z,19.50
2022-08-28T00:18:19.465Z,19.75
2022-08-28T00:20:45.996Z,19.60
2022-08-28T00:23:12.352Z,19.77
2022-08-28T00:25:38.697Z,19.94
2022-08-28T00:28:08.737Z,19.24
2022-08-28T00:30:45.864Z,19.17
2022-08-28T00:33:18.552Z,19.46
2022-08-28T00:35:45.318Z,19.29
2022-08-28T00:38:13.155Z,19.40
2022-08-28T00:40:43.139Z,19.77
2022-08-28T00:43:12.031Z,19.21
2022-08-28T00:45:40.025Z,19.26
2022-08-28T00:48:07.566Z,19.61
2022-08-28T00:50:35.493Z,19.13
2022-08-28T00:53:01.806Z,19.71
2022-08-28T00:55:28.988Z,20.05
2022-08-28T00:57:59.724Z,19.46
2022-08-28T01:00:32.325Z,18.92
2022-08-28T01:02:58.777Z,18.99
2022-08-28T01:05:26.412Z,19.12
2022-08-28T01:07:53.834Z,18.99
2022-08-28T01:10:23.044Z,19.22
2022-08-28T01:12:49.887Z,19.25
2022-08-28T01:15:20.401Z,18.83
2022-08-28T01:17:50.717Z,19.28
2022-08-28T01:20:21.559Z,18.63
2022-08-28T01:23:24.895Z,19.40
2022-08-28T01:25:51.466Z,19.59
2022-08-28T01:28:18.128Z,19.20
2022-08-28T01:30:46.771Z,19.17
2022-08-28T01:33:13.399Z,20.03
2022-08-28T01:35:45.123Z,18.99
2022-08-28T01:38:11.788Z,19.10
2022-08-28T01:40:42.165Z,18.96
2022-08-28T01:43:18.536Z,19.10
2022-08-28T01:45:51.946Z,19.16
2022-08-28T01:48:19.307Z,19.26
2022-08-28T01:50:45.787Z,19.55
2022-08-28T01:53:15.159Z,19.23
2022-08-28T01:55:43.114Z,18.76
2022-08-28T01:58:10.553Z,19.26
2022-08-28T02:00:37.452Z,19.30
2022-08-28T02:03:03.890Z,19.34
2022-08-28T02:05:31.826Z,19.32
2022-08-28T02:08:00.205Z,19.32
2022-08-28T02:10:28.691Z,19.55
2022-08-28T02:12:59.131Z,19.74
2022-08-28T02:15:27.311Z,19.76
2022-08-28T02:17:53.903Z,19.54
2022-08-28T02:20:20.261Z,19.10
2022-08-28T02:22:46.563Z,18.97
2022-08-28T02:25:12.948Z,18.71
2022-08-28T02:27:39.426Z,19.00
2022-08-28T02:30:08.878Z,18.69
2022-08-28T02:32:35.454Z,18.90
2022-08-28T02:35:02.437Z,18.96
2022-08-28T02:37:28.744Z,19.09
2022-08-28T02:39:57.947Z,19.16
2022-08-28T02:42:24.380Z,19.45
2022-08-28T02:44:50.676Z,19.32
2022-08-28T02:47:17.023Z,19.44
2022-08-28T02:49:43.353Z,19.52
2022-08-28T02:52:10.495Z,19.51
2022-08-28T02:54:37.161Z,19.73
2022-08-28T02:57:03.618Z,19.12
2022-08-28T02:59:30.064Z,18.86
2022-08-28T03:01:56.412Z,18.61
2022-08-28T03:04:22.820Z,18.59
2022-08-28T03:06:49.116Z,18.83
2022-08-28T03:09:15.510Z,18.67
2022-08-28T03:11:42.092Z,18.68
2022-08-28T03:14:08.398Z,19.15
2022-08-28T03:16:35.003Z,18.84
2022-08-28T03:19:01.336Z,19.00
2022-08-28T03:21:27.687Z,18.77
2022-08-28T03:23:54.030Z,18.62
2022-08-28T03:26:21.093Z,18.69
2022-08-28T03:28:52.031Z,18.25
2022-08-28T03:31:21.557Z,18.48
2022-08-28T03:33:48.496Z,18.62
2022-08-28T03:36:20.847Z,18.39
2022-08-28T03:38:48.474Z,17.92
2022-08-28T03:41:17.447Z,18.58
2022-08-28T03:43:44.353Z,18.05
2022-08-28T03:46:19.566Z,17.93
2022-08-28T03:48:46.524Z,18.18
2022-08-28T03:51:16.861Z,18.54
2022-08-28T03:53:44.327Z,18.61
2022-08-28T03:56:14.418Z,18.88
2022-08-28T03:58:41.879Z,18.43
2022-08-28T04:01:09.502Z,19.00
2022-08-28T04:03:36.652Z,18.65
2022-08-28T04:06:03.597Z,18.46
2022-08-28T04:08:30.051Z,18.80
2022-08-28T04:10:56.491Z,19.26
2022-08-28T04:13:22.900Z,18.26
2022-08-28T04:15:58.033Z,18.67
2022-08-28T04:18:24.385Z,18.70
2022-08-28T04:21:05.349Z,18.79
2022-08-28T04:23:31.852Z,18.25
2022-08-28T04:25:58.162Z,18.38
2022-08-28T04:28:24.979Z,18.35
2022-08-28T04:30:53.059Z,18.69
2022-08-28T04:33:19.366Z,18.91
2022-08-28T04:35:45.749Z,19.08
2022-08-28T04:38:12.050Z,18.50
2022-08-28T04:40:40.428Z,18.70
2022-08-28T04:43:07.411Z,19.03
2022-08-28T04:45:40.458Z,17.97
2022-08-28T04:48:10.518Z,18.54
2022-08-28T04:50:44.726Z,18.54
2022-08-28T04:53:11.684Z,18.84
2022-08-28T04:55:53.938Z,19.16
2022-08-28T04:58:23.690Z,18.86
2022-08-28T05:00:51.987Z,18.66
2022-08-28T05:03:18.405Z,18.83
2022-08-28T05:05:46.972Z,19.56
2022-08-28T05:08:15.025Z,19.28
2022-08-28T05:10:42.752Z,19.05
2022-08-28T05:13:11.039Z,19.19
2022-08-28T05:15:39.005Z,19.47
2022-08-28T05:18:05.715Z,19.53
2022-08-28T05:20:39.676Z,19.04
2022-08-28T05:23:06.903Z,19.38
2022-08-28T05:25:38.504Z,19.09
2022-08-28T05:28:05.725Z,19.02
2022-08-28T05:30:33.326Z,19.00
2022-08-28T05:33:00.530Z,19.30
2022-08-28T05:35:27.602Z,19.48
2022-08-28T05:37:53.916Z,19.57
2022-08-28T05:40:21.585Z,19.73
2022-08-28T05:42:51.840Z,19.37
2022-08-28T05:45:19.437Z,19.37
2022-08-28T05:47:45.781Z,19.52
2022-08-28T05:50:12.230Z,19.54
2022-08-28T05:52:38.537Z,19.93
2022-08-28T05:55:05.656Z,19.53
2022-08-28T05:57:31.980Z,19.70
2022-08-28T05:59:58.311Z,19.72
2022-08-28T06:02:24.671Z,19.45
2022-08-28T06:04:51.154Z,19.80
2022-08-28T06:07:17.462Z,19.74
2022-08-28T06:09:43.806Z,19.11
2022-08-28T06:12:10.549Z,19.59
2022-08-28T06:14:38.481Z,19.73
2022-08-28T06:17:05.188Z,19.95
2022-08-28T06:19:35.589Z,20.19
2022-08-28T06:22:07.257Z,20.33
2022-08-28T06:24:34.439Z,20.26
2022-08-28T06:27:00.742Z,19.40
2022-08-28T06:29:27.993Z,19.28
2022-08-28T06:32:00.201Z,19.35
2022-08-28T06:34:27.850Z,19.00
2022-08-28T06:36:54.493Z,19.89
2022-08-28T06:39:22.001Z,20.27
2022-08-28T06:41:48.466Z,20.07
2022-08-28T06:44:18.160Z,20.27
2022-08-28T06:46:44.604Z,20.26
2022-08-28T06:49:10.995Z,20.42
2022-08-28T06:51:37.314Z,20.40
2022-08-28T06:54:04.927Z,20.46
2022-08-28T06:56:31.919Z,20.69
2022-08-28T06:58:58.747Z,20.69
2022-08-28T07:01:28.144Z,20.83
2022-08-28T07:03:56.598Z,20.85
2022-08-28T07:06:23.589Z,20.95
2022-08-28T07:08:50.288Z,20.71
2022-08-28T07:11:25.991Z,21.09
2022-08-28T07:13:53.664Z,21.32
2022-08-28T07:16:22.579Z,21.16
2022-08-28T07:18:49.119Z,21.19
2022-08-28T07:21:15.714Z,21.60
2022-08-28T07:23:43.520Z,21.52
2022-08-28T07:26:13.795Z,21.51
2022-08-28T07:28:40.436Z,21.83
2022-08-28T07:31:11.440Z,22.29
2022-08-28T07:33:38.639Z,21.41
2022-08-28T07:36:07.875Z,21.90
2022-08-28T07:38:42.131Z,22.04
2022-08-28T07:41:23.528Z,22.34
2022-08-28T07:43:50.856Z,22.18
2022-08-28T07:46:17.204Z,22.08
2022-08-28T07:48:43.551Z,22.04
2022-08-28T07:51:09.916Z,22.25
2022-08-28T07:53:36.720Z,20.66
2022-08-28T07:56:04.919Z,21.82
2022-08-28T07:58:31.478Z,22.27
2022-08-28T08:00:58.714Z,21.49
2022-08-28T08:03:25.081Z,21.22
2022-08-28T08:05:53.125Z,22.11
2022-08-28T08:08:19.553Z,21.37
2022-08-28T08:10:45.975Z,21.47
2022-08-28T08:13:12.281Z,21.41
2022-08-28T08:15:38.616Z,21.71
2022-08-28T08:18:05.152Z,21.79
2022-08-28T08:20:31.504Z,20.98
2022-08-28T08:22:57.801Z,21.83
2022-08-28T08:25:24.136Z,22.01
2022-08-28T08:27:50.657Z,21.25
2022-08-28T08:30:17.112Z,21.91
2022-08-28T08:32:43.431Z,22.29
2022-08-28T08:35:09.751Z,22.16
2022-08-28T08:37:36.083Z,22.32
2022-08-28T08:40:02.682Z,23.43
2022-08-28T08:42:32.529Z,22.74
2022-08-28T08:45:01.459Z,21.72
2022-08-28T08:47:48.208Z,22.34
2022-08-28T08:50:18.890Z,21.53
2022-08-28T08:53:19.246Z,25.09
2022-08-28T08:55:48.381Z,22.94
2022-08-28T08:58:31.665Z,21.86
2022-08-28T09:01:04.829Z,23.35
2022-08-28T09:03:40.455Z,22.86
2022-08-28T09:06:21.221Z,22.82
2022-08-28T09:08:52.497Z,21.50
2022-08-28T09:11:41.390Z,22.31
2022-08-28T09:14:19.680Z,24.87
2022-08-28T09:16:47.435Z,25.80
2022-08-28T09:19:18.929Z,26.02
2022-08-28T09:21:46.268Z,25.26
2022-08-28T09:24:28.729Z,24.93
2022-08-28T09:27:00.476Z,24.66
2022-08-28T09:29:39.457Z,24.24
2022-08-28T09:32:25.110Z,23.50
2022-08-28T09:35:30.380Z,22.60
2022-08-28T09:38:18.003Z,22.72
2022-08-28T09:40:44.643Z,22.71
2022-08-28T09:43:17.017Z,22.75
2022-08-28T09:45:43.361Z,23.73
2022-08-28T09:48:22.090Z,22.81
2022-08-28T09:51:00.849Z,24.05
2022-08-28T09:53:27.154Z,23.52
2022-08-28T09:55:59.573Z,23.71
2022-08-28T09:58:54.128Z,23.92
2022-08-28T10:01:46.274Z,23.22
2022-08-28T10:04:15.844Z,23.05
2022-08-28T10:06:53.347Z,22.74
2022-08-28T10:09:48.008Z,22.42
2022-08-28T10:12:48.297Z,23.06
2022-08-28T10:15:43.550Z,23.04
2022-08-28T10:18:49.869Z,23.39
2022-08-28T10:21:19.316Z,22.40
2022-08-28T10:24:14.069Z,23.39
2022-08-28T10:26:47.156Z,23.23
2022-08-28T10:29:34.951Z,23.66
2022-08-28T10:32:24.063Z,23.53
2022-08-28T10:35:05.598Z,23.84
2022-08-28T10:37:42.050Z,23.65
2022-08-28T10:40:20.674Z,23.98
2022-08-28T10:42:55.812Z,24.24
2022-08-28T10:45:25.445Z,23.41
2022-08-28T10:48:05.198Z,23.06
2022-08-28T10:50:43.946Z,23.20
2022-08-28T10:53:15.617Z,23.49
2022-08-28T10:55:54.903Z,22.83
2022-08-28T10:58:25.515Z,23.47
2022-08-28T11:00:59.939Z,23.95
2022-08-28T11:03:35.729Z,23.53
2022-08-28T11:06:14.159Z,23.59
2022-08-28T11:08:40.724Z,23.16
2022-08-28T11:11:13.643Z,23.67
2022-08-28T11:13:46.488Z,23.15
2022-08-28T11:16:20.757Z,23.52
2022-08-28T11:19:17.675Z,24.04
2022-08-28T11:21:53.011Z,24.19
2022-08-28T11:24:31.071Z,23.84
2022-08-28T11:27:19.564Z,23.89
2022-08-28T11:30:09.423Z,23.73
2022-08-28T11:32:37.583Z,24.09
2022-08-28T11:35:30.801Z,24.47
2022-08-28T11:37:57.980Z,24.55
2022-08-28T11:40:30.217Z,24.46
2022-08-28T11:43:14.882Z,23.88
2022-08-28T11:45:43.016Z,24.34
2022-08-28T11:48:25.318Z,23.86
2022-08-28T11:51:08.477Z,23.61
2022-08-28T11:53:58.715Z,23.97
2022-08-28T11:56:47.797Z,24.16
2022-08-28T11:59:35.070Z,24.07
2022-08-28T12:02:39.013Z,23.95
2022-08-28T12:05:08.859Z,24.04
2022-08-28T12:07:44.851Z,23.95
2022-08-28T12:10:20.326Z,23.96
2022-08-28T12:12:46.568Z,24.24
2022-08-28T12:15:28.287Z,24.49
2022-08-28T12:18:13.206Z,24.62
2022-08-28T12:20:51.428Z,24.43
2022-08-28T12:23:23.674Z,24.44
2022-08-28T12:26:00.143Z,24.30
2022-08-28T12:28:37.412Z,24.27
2022-08-28T12:31:06.768Z,24.24
2022-08-28T12:34:04.632Z,24.28
2022-08-28T12:36:31.860Z,24.53
2022-08-28T12:38:58.201Z,24.62
2022-08-28T12:41:24.912Z,24.43
2022-08-28T12:43:56.851Z,24.61
2022-08-28T12:46:29.799Z,24.12
2022-08-28T12:48:59.216Z,24.26
2022-08-28T12:51:34.613Z,23.86
2022-08-28T12:54:06.628Z,24.13
2022-08-28T12:56:36.400Z,24.05
2022-08-28T12:59:41.834Z,23.89
2022-08-28T13:02:26.234Z,23.58
2022-08-28T13:05:00.192Z,24.04
2022-08-28T13:07:33.967Z,23.73
2022-08-28T13:10:06.726Z,23.72
2022-08-28T13:12:55.133Z,23.60
2022-08-28T13:15:49.984Z,23.38
2022-08-28T13:18:35.758Z,23.77
2022-08-28T13:21:17.192Z,24.09
2022-08-28T13:23:58.199Z,23.71
2022-08-28T13:26:35.769Z,24.87
2022-08-28T13:29:23.859Z,25.03
2022-08-28T13:31:59.566Z,23.62
2022-08-28T13:34:31.548Z,23.98
2022-08-28T13:37:04.228Z,24.26
2022-08-28T13:39:35.071Z,24.54
2022-08-28T13:42:12.450Z,24.56
2022-08-28T13:44:49.703Z,24.64
2022-08-28T13:47:16.536Z,23.86
2022-08-28T13:49:43.197Z,23.89
2022-08-28T13:52:10.629Z,23.37
2022-08-28T13:54:38.196Z,23.20
2022-08-28T13:57:08.836Z,23.31
2022-08-28T13:59:35.134Z,23.83
2022-08-28T14:02:04.591Z,24.05
2022-08-28T14:04:31.951Z,24.09
2022-08-28T14:06:58.279Z,23.43
2022-08-28T14:09:24.817Z,23.86
2022-08-28T14:11:51.697Z,24.18
2022-08-28T14:14:18.049Z,24.32
2022-08-28T14:16:44.760Z,23.77
2022-08-28T14:19:11.713Z,23.85
2022-08-28T14:21:40.205Z,23.22
2022-08-28T14:24:07.377Z,23.87
2022-08-28T14:26:33.906Z,23.44
2022-08-28T14:29:01.216Z,23.99
2022-08-28T14:31:28.488Z,23.47
2022-08-28T14:33:56.938Z,23.52
2022-08-28T14:36:29.212Z,23.26
2022-08-28T14:39:00.772Z,23.81
2022-08-28T14:41:29.231Z,23.23
2022-08-28T14:43:57.784Z,23.88
2022-08-28T14:46:30.438Z,23.72
2022-08-28T14:49:04.632Z,23.59
2022-08-28T14:51:32.937Z,23.90
2022-08-28T14:54:00.356Z,23.56
2022-08-28T14:56:27.717Z,24.02
2022-08-28T14:58:59.896Z,23.98
2022-08-28T15:01:36.273Z,23.14
2022-08-28T15:04:13.682Z,23.81
2022-08-28T15:06:40.183Z,23.42
2022-08-28T15:09:06.496Z,23.62
2022-08-28T15:11:32.938Z,23.82
2022-08-28T15:13:59.267Z,23.76
2022-08-28T15:16:30.386Z,23.70
2022-08-28T15:18:58.312Z,23.81
2022-08-28T15:21:52.480Z,23.96
2022-08-28T15:24:21.344Z,24.11
2022-08-28T15:26:47.686Z,23.94
2022-08-28T15:29:14.394Z,23.90
2022-08-28T15:31:44.072Z,23.95
2022-08-28T15:34:15.006Z,24.05
2022-08-28T15:36:43.627Z,23.71
2022-08-28T15:39:11.423Z,23.75
2022-08-28T15:41:37.887Z,23.33
2022-08-28T15:44:05.221Z,23.99
2022-08-28T15:46:34.069Z,23.10
2022-08-28T15:49:02.178Z,23.19
2022-08-28T15:51:29.607Z,23.12
2022-08-28T15:53:55.998Z,23.58
2022-08-28T15:56:22.534Z,23.46
2022-08-28T15:58:48.850Z,23.29
2022-08-28T16:01:15.285Z,23.21
2022-08-28T16:03:41.705Z,23.13
2022-08-28T16:06:16.379Z,23.14
2022-08-28T16:08:44.067Z,23.00
2022-08-28T16:11:14.580Z,22.69
2022-08-28T16:13:40.900Z,22.39
2022-08-28T16:16:07.326Z,22.69
2022-08-28T16:18:33.708Z,22.97
2022-08-28T16:21:04.733Z,22.59
2022-08-28T16:23:32.220Z,22.65
2022-08-28T16:25:59.850Z,22.86
2022-08-28T16:28:27.210Z,22.82
2022-08-28T16:30:54.197Z,22.56
2022-08-28T16:33:20.685Z,22.65
2022-08-28T16:35:54.919Z,22.29
2022-08-28T16:38:23.520Z,22.26
2022-08-28T16:40:50.056Z,22.50
2022-08-28T16:43:16.634Z,22.93
2022-08-28T16:45:45.564Z,22.98
2022-08-28T16:48:13.824Z,22.52
2022-08-28T16:50:42.572Z,22.64
2022-08-28T16:53:09.658Z,22.25
2022-08-28T16:55:37.255Z,22.13
2022-08-28T16:58:04.747Z,22.05
2022-08-28T17:00:34.921Z,22.23
2022-08-28T17:03:12.536Z,22.20
2022-08-28T17:05:40.085Z,22.23
2022-08-28T17:08:08.517Z,22.61
2022-08-28T17:10:36.432Z,22.45
2022-08-28T17:13:02.855Z,22.38
2022-08-28T17:15:29.227Z,22.18
2022-08-28T17:17:56.621Z,22.06
2022-08-28T17:20:23.322Z,22.06
2022-08-28T17:22:49.673Z,22.29
2022-08-28T17:25:16.140Z,21.65
2022-08-28T17:27:42.457Z,21.99
2022-08-28T17:30:09.808Z,22.05
2022-08-28T17:32:36.360Z,22.12
2022-08-28T17:35:04.467Z,21.86
2022-08-28T17:37:30.954Z,21.63
2022-08-28T17:39:57.353Z,22.15
2022-08-28T17:42:23.714Z,21.93
2022-08-28T17:44:50.072Z,22.17
2022-08-28T17:47:16.387Z,21.90
2022-08-28T17:49:42.735Z,21.94
2022-08-28T17:52:09.046Z,21.73
2022-08-28T17:54:35.455Z,21.62
2022-08-28T17:57:01.757Z,21.74
2022-08-28T17:59:28.095Z,22.20
2022-08-28T18:01:54.866Z,21.99
2022-08-28T18:04:24.546Z,22.31
2022-08-28T18:06:51.948Z,21.42
2022-08-28T18:09:18.495Z,21.67
2022-08-28T18:11:44.838Z,21.81
2022-08-28T18:14:11.153Z,21.16
2022-08-28T18:16:38.198Z,21.28
2022-08-28T18:19:07.167Z,21.53
2022-08-28T18:21:33.961Z,22.00
2022-08-28T18:24:00.355Z,21.58
2022-08-28T18:26:26.703Z,22.01
2022-08-28T18:28:53.046Z,21.52
2022-08-28T18:31:19.766Z,21.41
2022-08-28T18:33:46.287Z,21.19
2022-08-28T18:36:13.912Z,21.01
2022-08-28T18:38:40.787Z,21.16
2022-08-28T18:41:08.213Z,21.22
2022-08-28T18:43:34.907Z,21.33
2022-08-28T18:46:02.378Z,21.49
2022-08-28T18:48:29.393Z,20.78
2022-08-28T18:50:55.753Z,20.93
2022-08-28T18:53:23.535Z,20.84
2022-08-28T18:55:53.750Z,21.23
2022-08-28T18:58:20.785Z,21.24
2022-08-28T19:00:47.607Z,21.24
2022-08-28T19:03:13.970Z,21.55
2022-08-28T19:05:40.306Z,21.70
2022-08-28T19:08:06.759Z,21.45
2022-08-28T19:10:35.056Z,21.47
2022-08-28T19:13:02.552Z,21.69
2022-08-28T19:15:29.850Z,21.50
2022-08-28T19:17:57.018Z,21.60
2022-08-28T19:20:23.501Z,21.28
2022-08-28T19:22:49.907Z,21.46
2022-08-28T19:25:25.754Z,21.31
2022-08-28T19:27:56.341Z,20.76
2022-08-28T19:30:25.744Z,21.24
2022-08-28T19:32:52.060Z,21.07
2022-08-28T19:35:18.894Z,21.12
2022-08-28T19:37:45.381Z,21.22
2022-08-28T19:40:12.207Z,21.09
2022-08-28T19:42:39.294Z,21.09
2022-08-28T19:45:07.751Z,20.58
2022-08-28T19:47:35.551Z,20.32
2022-08-28T19:50:03.388Z,20.84
2022-08-28T19:52:29.773Z,21.09
2022-08-28T19:54:56.094Z,20.57
2022-08-28T19:57:22.510Z,20.74
2022-08-28T19:59:48.921Z,20.22
2022-08-28T20:02:15.345Z,19.77
2022-08-28T20:04:41.711Z,20.52
2022-08-28T20:07:08.147Z,20.45
2022-08-28T20:09:34.667Z,20.64
2022-08-28T20:12:00.990Z,20.64
2022-08-28T20:14:27.554Z,20.83
2022-08-28T20:16:53.908Z,20.94
2022-08-28T20:19:20.787Z,19.58
2022-08-28T20:21:48.425Z,20.32
2022-08-28T20:24:18.159Z,20.04
2022-08-28T20:26:44.777Z,20.51
2022-08-28T20:29:12.296Z,20.42
2022-08-28T20:31:41.556Z,20.32
2022-08-28T20:34:09.909Z,19.83
2022-08-28T20:36:36.275Z,19.65
2022-08-28T20:39:02.899Z,19.55
2022-08-28T20:41:29.476Z,20.03
2022-08-28T20:43:56.015Z,19.59
2022-08-28T20:46:22.442Z,19.16
2022-08-28T20:48:49.066Z,19.89
2022-08-28T20:51:15.368Z,19.31
2022-08-28T20:53:41.658Z,19.20
2022-08-28T20:56:09.944Z,19.24
2022-08-28T20:58:37.695Z,19.68
2022-08-28T21:01:04.124Z,19.47
2022-08-28T21:03:30.460Z,19.34
2022-08-28T21:05:56.771Z,18.97
2022-08-28T21:08:23.088Z,19.23
2022-08-28T21:10:51.667Z,19.17
2022-08-28T21:13:18.007Z,19.14
2022-08-28T21:15:44.374Z,19.05
2022-08-28T21:18:10.734Z,19.37
2022-08-28T21:20:38.587Z,19.00
2022-08-28T21:23:05.866Z,19.02
2022-08-28T21:25:32.927Z,18.98
2022-08-28T21:27:59.262Z,19.00
2022-08-28T21:30:30.539Z,18.62
2022-08-28T21:32:56.920Z,19.09
2022-08-28T21:35:23.279Z,18.91
2022-08-28T21:37:49.571Z,18.97
2022-08-28T21:40:16.230Z,18.96
2022-08-28T21:42:43.462Z,18.85
2022-08-28T21:45:12.160Z,19.04
2022-08-28T21:47:39.204Z,19.01
2022-08-28T21:50:06.131Z,19.31
2022-08-28T21:52:32.580Z,19.24
2022-08-28T21:55:01.520Z,18.67
2022-08-28T21:57:29.418Z,19.03
2022-08-28T21:59:56.291Z,19.04
2022-08-28T22:02:22.862Z,19.19
2022-08-28T22:04:49.204Z,19.34
2022-08-28T22:07:18.030Z,19.29
2022-08-28T22:09:44.786Z,19.31
2022-08-28T22:12:11.526Z,19.27
2022-08-28T22:14:38.662Z,19.23
2022-08-28T22:17:10.266Z,19.14
2022-08-28T22:19:37.954Z,18.85
2022-08-28T22:22:04.272Z,19.10
2022-08-28T22:24:30.675Z,18.92
2022-08-28T22:26:57.617Z,19.04
2022-08-28T22:29:24.569Z,18.96
2022-08-28T22:31:51.221Z,18.77
2022-08-28T22:34:17.642Z,18.87
2022-08-28T22:36:44.403Z,19.06
2022-08-28T22:39:10.752Z,18.87
2022-08-28T22:41:37.149Z,18.88
2022-08-28T22:44:03.967Z,18.95
2022-08-28T22:46:30.560Z,18.76
2022-08-28T22:48:56.879Z,18.42
2022-08-28T22:51:23.235Z,18.08
2022-08-28T22:53:49.796Z,17.57
2022-08-28T22:56:17.231Z,18.20
2022-08-28T22:58:43.799Z,18.05
2022-08-28T23:01:14.730Z,18.49
2022-08-28T23:03:41.600Z,18.50
2022-08-28T23:06:07.986Z,18.57
2022-08-28T23:08:34.717Z,18.07
2022-08-28T23:11:01.774Z,18.35
2022-08-28T23:13:28.439Z,18.20
2022-08-28T23:15:54.867Z,18.34
2022-08-28T23:18:21.441Z,18.55
2022-08-28T23:20:47.926Z,18.27
2022-08-28T23:23:17.253Z,18.40
2022-08-28T23:25:43.796Z,18.24
2022-08-28T23:28:10.124Z,18.22
2022-08-28T23:30:36.478Z,18.51
2022-08-28T23:33:02.784Z,18.96
2022-08-28T23:35:34.646Z,18.58
2022-08-28T23:38:01.511Z,18.42
2022-08-28T23:40:28.175Z,18.29
2022-08-28T23:42:56.321Z,17.83
2022-08-28T23:45:23.364Z,17.87
2022-08-28T23:47:49.885Z,18.08
2022-08-28T23:50:20.332Z,17.90
2022-08-28T23:52:47.955Z,17.76
2022-08-28T23:55:18.455Z,17.58
2022-08-28T23:57:45.809Z,17.73
